sensor_id;sensor_type;location;lat;lon;timestamp;P1;durP1;ratioP1;P2;durP2;ratioP2
9115;SDS011;4593;53.652;10.168;2023-04-24T00:00:55;4.43;;;4.03;;
9115;SDS011;4593;53.652;10.168;2023-04-24T00:03:26;4.97;;;4.07;;
9115;SDS011;4593;53.652;10.168;2023-04-24T00:05:53;4.20;;;3.60;;
9115;SDS011;4593;53.652;10.168;2023-04-24T00:08:19;5.53;;;4.10;;
9115;SDS011;4593;53.652;10.168;2023-04-24T00:10:44;4.57;;;4.00;;
9115;SDS011;4593;53.652;10.168;2023-04-24T00:13:10;4.83;;;3.87;;
9115;SDS011;4593;53.652;10.168;2023-04-24T00:15:36;5.07;;;3.70;;
9115;SDS011;4593;53.652;10.168;2023-04-24T00:18:02;5.33;;;4.30;;
9115;SDS011;4593;53.652;10.168;2023-04-24T00:20:28;4.80;;;4.17;;
9115;SDS011;4593;53.652;10.168;2023-04-24T00:23:00;4.50;;;3.97;;
9115;SDS011;4593;53.652;10.168;2023-04-24T00:25:26;4.47;;;3.93;;
9115;SDS011;4593;53.652;10.168;2023-04-24T00:27:52;5.87;;;4.27;;
9115;SDS011;4593;53.652;10.168;2023-04-24T00:30:17;4.83;;;4.33;;
9115;SDS011;4593;53.652;10.168;2023-04-24T00:32:43;6.00;;;4.43;;
9115;SDS011;4593;53.652;10.168;2023-04-24T00:35:08;4.77;;;4.17;;
9115;SDS011;4593;53.652;10.168;2023-04-24T00:37:36;4.70;;;3.77;;
9115;SDS011;4593;53.652;10.168;2023-04-24T00:40:01;5.30;;;4.63;;
9115;SDS011;4593;53.652;10.168;2023-04-24T00:42:28;5.00;;;4.30;;
9115;SDS011;4593;53.652;10.168;2023-04-24T00:44:54;8.43;;;4.87;;
9115;SDS011;4593;53.652;10.168;2023-04-24T00:47:20;5.43;;;4.67;;
9115;SDS011;4593;53.652;10.168;2023-04-24T00:49:47;6.33;;;4.87;;
9115;SDS011;4593;53.652;10.168;2023-04-24T00:52:12;6.23;;;5.00;;
9115;SDS011;4593;53.652;10.168;2023-04-24T00:54:43;6.50;;;5.13;;
9115;SDS011;4593;53.652;10.168;2023-04-24T00:57:10;6.27;;;4.63;;
9115;SDS011;4593;53.652;10.168;2023-04-24T00:59:36;5.70;;;4.70;;
9115;SDS011;4593;53.652;10.168;2023-04-24T01:02:02;6.83;;;5.07;;
9115;SDS011;4593;53.652;10.168;2023-04-24T01:04:28;6.53;;;4.90;;
9115;SDS011;4593;53.652;10.168;2023-04-24T01:06:54;5.63;;;4.60;;
9115;SDS011;4593;53.652;10.168;2023-04-24T01:09:21;5.00;;;4.00;;
9115;SDS011;4593;53.652;10.168;2023-04-24T01:11:48;6.53;;;4.30;;
9115;SDS011;4593;53.652;10.168;2023-04-24T01:14:15;6.87;;;5.10;;
9115;SDS011;4593;53.652;10.168;2023-04-24T01:16:40;7.00;;;5.27;;
9115;SDS011;4593;53.652;10.168;2023-04-24T01:19:06;5.40;;;4.90;;
9115;SDS011;4593;53.652;10.168;2023-04-24T01:21:34;5.77;;;4.80;;
9115;SDS011;4593;53.652;10.168;2023-04-24T01:24:02;5.37;;;4.77;;
9115;SDS011;4593;53.652;10.168;2023-04-24T01:26:28;5.57;;;4.57;;
9115;SDS011;4593;53.652;10.168;2023-04-24T01:28:54;6.03;;;4.97;;
9115;SDS011;4593;53.652;10.168;2023-04-24T01:31:21;6.67;;;4.70;;
9115;SDS011;4593;53.652;10.168;2023-04-24T01:33:47;5.77;;;4.43;;
9115;SDS011;4593;53.652;10.168;2023-04-24T01:36:13;5.33;;;4.23;;
9115;SDS011;4593;53.652;10.168;2023-04-24T01:38:39;5.17;;;4.60;;
9115;SDS011;4593;53.652;10.168;2023-04-24T01:41:04;5.63;;;4.27;;
9115;SDS011;4593;53.652;10.168;2023-04-24T01:43:30;4.40;;;4.00;;
9115;SDS011;4593;53.652;10.168;2023-04-24T01:45:56;4.90;;;3.87;;
9115;SDS011;4593;53.652;10.168;2023-04-24T01:48:22;5.80;;;4.43;;
9115;SDS011;4593;53.652;10.168;2023-04-24T01:50:48;5.33;;;4.20;;
9115;SDS011;4593;53.652;10.168;2023-04-24T01:53:14;5.03;;;4.33;;
9115;SDS011;4593;53.652;10.168;2023-04-24T01:55:40;3.97;;;3.63;;
9115;SDS011;4593;53.652;10.168;2023-04-24T01:58:06;4.97;;;4.47;;
9115;SDS011;4593;53.652;10.168;2023-04-24T02:00:32;4.23;;;3.70;;
9115;SDS011;4593;53.652;10.168;2023-04-24T02:02:58;5.13;;;4.07;;
9115;SDS011;4593;53.652;10.168;2023-04-24T02:05:23;4.07;;;3.57;;
9115;SDS011;4593;53.652;10.168;2023-04-24T02:07:49;5.70;;;3.80;;
9115;SDS011;4593;53.652;10.168;2023-04-24T02:10:14;3.70;;;3.27;;
9115;SDS011;4593;53.652;10.168;2023-04-24T02:12:40;4.10;;;3.60;;
9115;SDS011;4593;53.652;10.168;2023-04-24T02:15:06;3.27;;;2.97;;
9115;SDS011;4593;53.652;10.168;2023-04-24T02:17:32;4.93;;;3.63;;
9115;SDS011;4593;53.652;10.168;2023-04-24T02:19:57;4.43;;;3.77;;
9115;SDS011;4593;53.652;10.168;2023-04-24T02:22:23;3.87;;;3.43;;
9115;SDS011;4593;53.652;10.168;2023-04-24T02:24:48;3.47;;;3.10;;
9115;SDS011;4593;53.652;10.168;2023-04-24T02:27:14;4.37;;;3.70;;
9115;SDS011;4593;53.652;10.168;2023-04-24T02:29:40;4.03;;;3.70;;
9115;SDS011;4593;53.652;10.168;2023-04-24T02:32:06;4.07;;;3.67;;
9115;SDS011;4593;53.652;10.168;2023-04-24T02:34:31;4.83;;;3.40;;
9115;SDS011;4593;53.652;10.168;2023-04-24T02:36:57;3.60;;;2.97;;
9115;SDS011;4593;53.652;10.168;2023-04-24T02:39:23;4.00;;;3.43;;
9115;SDS011;4593;53.652;10.168;2023-04-24T02:41:48;3.97;;;3.47;;
9115;SDS011;4593;53.652;10.168;2023-04-24T02:44:14;3.70;;;3.40;;
9115;SDS011;4593;53.652;10.168;2023-04-24T02:46:40;3.77;;;3.37;;
9115;SDS011;4593;53.652;10.168;2023-04-24T02:49:06;3.93;;;3.40;;
9115;SDS011;4593;53.652;10.168;2023-04-24T02:51:32;3.47;;;3.17;;
9115;SDS011;4593;53.652;10.168;2023-04-24T02:53:58;4.17;;;3.60;;
9115;SDS011;4593;53.652;10.168;2023-04-24T02:56:23;3.20;;;2.90;;
9115;SDS011;4593;53.652;10.168;2023-04-24T02:58:49;4.13;;;3.17;;
9115;SDS011;4593;53.652;10.168;2023-04-24T03:01:15;3.83;;;3.53;;
9115;SDS011;4593;53.652;10.168;2023-04-24T03:03:41;3.77;;;3.27;;
9115;SDS011;4593;53.652;10.168;2023-04-24T03:06:06;3.83;;;3.53;;
9115;SDS011;4593;53.652;10.168;2023-04-24T03:08:33;3.40;;;3.10;;
9115;SDS011;4593;53.652;10.168;2023-04-24T03:10:59;3.20;;;2.90;;
9115;SDS011;4593;53.652;10.168;2023-04-24T03:13:25;3.50;;;3.20;;
9115;SDS011;4593;53.652;10.168;2023-04-24T03:15:50;3.43;;;3.13;;
9115;SDS011;4593;53.652;10.168;2023-04-24T03:18:16;3.10;;;2.80;;
9115;SDS011;4593;53.652;10.168;2023-04-24T03:20:42;3.57;;;3.03;;
9115;SDS011;4593;53.652;10.168;2023-04-24T03:23:10;3.20;;;2.83;;
9115;SDS011;4593;53.652;10.168;2023-04-24T03:25:35;3.40;;;3.10;;
9115;SDS011;4593;53.652;10.168;2023-04-24T03:28:01;3.53;;;3.20;;
9115;SDS011;4593;53.652;10.168;2023-04-24T03:30:27;3.10;;;2.80;;
9115;SDS011;4593;53.652;10.168;2023-04-24T03:32:52;2.93;;;2.63;;
9115;SDS011;4593;53.652;10.168;2023-04-24T03:35:18;3.43;;;3.00;;
9115;SDS011;4593;53.652;10.168;2023-04-24T03:37:43;3.27;;;2.83;;
9115;SDS011;4593;53.652;10.168;2023-04-24T03:40:09;4.00;;;3.10;;
9115;SDS011;4593;53.652;10.168;2023-04-24T03:42:35;3.77;;;2.90;;
9115;SDS011;4593;53.652;10.168;2023-04-24T03:45:01;4.67;;;2.70;;
9115;SDS011;4593;53.652;10.168;2023-04-24T03:47:26;3.10;;;2.80;;
9115;SDS011;4593;53.652;10.168;2023-04-24T03:49:52;2.67;;;2.47;;
9115;SDS011;4593;53.652;10.168;2023-04-24T03:52:19;2.53;;;2.33;;
9115;SDS011;4593;53.652;10.168;2023-04-24T03:54:44;2.80;;;2.60;;
9115;SDS011;4593;53.652;10.168;2023-04-24T03:57:10;2.53;;;2.33;;
9115;SDS011;4593;53.652;10.168;2023-04-24T03:59:36;2.73;;;2.53;;
9115;SDS011;4593;53.652;10.168;2023-04-24T04:02:01;3.50;;;2.63;;
9115;SDS011;4593;53.652;10.168;2023-04-24T04:04:27;2.60;;;2.40;;
9115;SDS011;4593;53.652;10.168;2023-04-24T04:06:53;2.67;;;2.50;;
9115;SDS011;4593;53.652;10.168;2023-04-24T04:09:18;2.60;;;2.40;;
9115;SDS011;4593;53.652;10.168;2023-04-24T04:11:44;2.50;;;2.30;;
9115;SDS011;4593;53.652;10.168;2023-04-24T04:14:10;3.23;;;2.57;;
9115;SDS011;4593;53.652;10.168;2023-04-24T04:16:35;2.80;;;2.50;;
9115;SDS011;4593;53.652;10.168;2023-04-24T04:19:01;2.57;;;2.37;;
9115;SDS011;4593;53.652;10.168;2023-04-24T04:21:28;2.57;;;2.37;;
9115;SDS011;4593;53.652;10.168;2023-04-24T04:23:54;2.50;;;2.30;;
9115;SDS011;4593;53.652;10.168;2023-04-24T04:26:19;5.73;;;3.00;;
9115;SDS011;4593;53.652;10.168;2023-04-24T04:28:46;3.30;;;2.67;;
9115;SDS011;4593;53.652;10.168;2023-04-24T04:31:12;2.70;;;2.50;;
9115;SDS011;4593;53.652;10.168;2023-04-24T04:33:38;2.60;;;2.40;;
9115;SDS011;4593;53.652;10.168;2023-04-24T04:36:04;2.70;;;2.50;;
9115;SDS011;4593;53.652;10.168;2023-04-24T04:38:30;2.30;;;2.10;;
9115;SDS011;4593;53.652;10.168;2023-04-24T04:40:56;2.93;;;2.73;;
9115;SDS011;4593;53.652;10.168;2023-04-24T04:43:22;3.07;;;2.43;;
9115;SDS011;4593;53.652;10.168;2023-04-24T04:45:49;2.80;;;2.60;;
9115;SDS011;4593;53.652;10.168;2023-04-24T04:48:16;2.83;;;2.20;;
9115;SDS011;4593;53.652;10.168;2023-04-24T04:50:43;2.27;;;2.17;;
9115;SDS011;4593;53.652;10.168;2023-04-24T04:53:09;5.07;;;2.60;;
9115;SDS011;4593;53.652;10.168;2023-04-24T04:55:35;2.30;;;2.20;;
9115;SDS011;4593;53.652;10.168;2023-04-24T04:58:01;2.63;;;2.43;;
9115;SDS011;4593;53.652;10.168;2023-04-24T05:00:27;3.27;;;2.97;;
9115;SDS011;4593;53.652;10.168;2023-04-24T05:02:58;2.60;;;2.40;;
9115;SDS011;4593;53.652;10.168;2023-04-24T05:05:25;3.80;;;2.50;;
9115;SDS011;4593;53.652;10.168;2023-04-24T05:07:51;2.40;;;2.20;;
9115;SDS011;4593;53.652;10.168;2023-04-24T05:10:16;2.50;;;2.30;;
9115;SDS011;4593;53.652;10.168;2023-04-24T05:12:42;2.60;;;2.40;;
9115;SDS011;4593;53.652;10.168;2023-04-24T05:15:08;2.63;;;2.43;;
9115;SDS011;4593;53.652;10.168;2023-04-24T05:17:34;2.50;;;2.30;;
9115;SDS011;4593;53.652;10.168;2023-04-24T05:19:59;2.57;;;2.37;;
9115;SDS011;4593;53.652;10.168;2023-04-24T05:22:25;3.73;;;2.33;;
9115;SDS011;4593;53.652;10.168;2023-04-24T05:24:51;2.60;;;2.40;;
9115;SDS011;4593;53.652;10.168;2023-04-24T05:27:17;2.47;;;2.27;;
9115;SDS011;4593;53.652;10.168;2023-04-24T05:29:42;2.70;;;2.50;;
9115;SDS011;4593;53.652;10.168;2023-04-24T05:32:08;3.07;;;2.23;;
9115;SDS011;4593;53.652;10.168;2023-04-24T05:34:34;2.27;;;2.10;;
9115;SDS011;4593;53.652;10.168;2023-04-24T05:37:00;3.07;;;2.40;;
9115;SDS011;4593;53.652;10.168;2023-04-24T05:39:26;7.07;;;2.33;;
9115;SDS011;4593;53.652;10.168;2023-04-24T05:41:52;2.70;;;2.10;;
9115;SDS011;4593;53.652;10.168;2023-04-24T05:44:17;2.20;;;2.10;;
9115;SDS011;4593;53.652;10.168;2023-04-24T05:46:43;2.10;;;2.00;;
9115;SDS011;4593;53.652;10.168;2023-04-24T05:49:09;2.40;;;2.20;;
9115;SDS011;4593;53.652;10.168;2023-04-24T05:51:34;4.00;;;2.03;;
9115;SDS011;4593;53.652;10.168;2023-04-24T05:54:00;2.00;;;1.90;;
9115;SDS011;4593;53.652;10.168;2023-04-24T05:56:27;2.27;;;2.10;;
9115;SDS011;4593;53.652;10.168;2023-04-24T05:58:53;2.00;;;1.90;;
9115;SDS011;4593;53.652;10.168;2023-04-24T06:01:19;3.30;;;2.00;;
9115;SDS011;4593;53.652;10.168;2023-04-24T06:03:45;2.17;;;1.97;;
9115;SDS011;4593;53.652;10.168;2023-04-24T06:06:10;2.40;;;2.20;;
9115;SDS011;4593;53.652;10.168;2023-04-24T06:08:36;2.00;;;1.90;;
9115;SDS011;4593;53.652;10.168;2023-04-24T06:11:01;2.20;;;2.10;;
9115;SDS011;4593;53.652;10.168;2023-04-24T06:13:27;2.10;;;2.00;;
9115;SDS011;4593;53.652;10.168;2023-04-24T06:15:53;2.03;;;1.93;;
9115;SDS011;4593;53.652;10.168;2023-04-24T06:18:19;2.27;;;2.13;;
9115;SDS011;4593;53.652;10.168;2023-04-24T06:20:45;3.20;;;2.27;;
9115;SDS011;4593;53.652;10.168;2023-04-24T06:23:12;2.23;;;2.10;;
9115;SDS011;4593;53.652;10.168;2023-04-24T06:25:38;2.57;;;2.17;;
9115;SDS011;4593;53.652;10.168;2023-04-24T06:28:03;3.30;;;2.43;;
9115;SDS011;4593;53.652;10.168;2023-04-24T06:30:29;2.73;;;2.30;;
9115;SDS011;4593;53.652;10.168;2023-04-24T06:32:55;2.77;;;2.40;;
9115;SDS011;4593;53.652;10.168;2023-04-24T06:35:21;2.20;;;2.10;;
9115;SDS011;4593;53.652;10.168;2023-04-24T06:37:47;2.43;;;2.23;;
9115;SDS011;4593;53.652;10.168;2023-04-24T06:40:13;2.27;;;2.10;;
9115;SDS011;4593;53.652;10.168;2023-04-24T06:42:39;2.30;;;2.10;;
9115;SDS011;4593;53.652;10.168;2023-04-24T06:45:05;2.47;;;2.13;;
9115;SDS011;4593;53.652;10.168;2023-04-24T06:47:31;3.30;;;2.20;;
9115;SDS011;4593;53.652;10.168;2023-04-24T06:49:57;2.83;;;2.33;;
9115;SDS011;4593;53.652;10.168;2023-04-24T06:52:23;2.20;;;2.03;;
9115;SDS011;4593;53.652;10.168;2023-04-24T06:54:49;1.83;;;1.73;;
9115;SDS011;4593;53.652;10.168;2023-04-24T06:57:15;6.00;;;2.30;;
9115;SDS011;4593;53.652;10.168;2023-04-24T06:59:41;2.40;;;2.20;;
9115;SDS011;4593;53.652;10.168;2023-04-24T07:02:07;2.10;;;1.90;;
9115;SDS011;4593;53.652;10.168;2023-04-24T07:04:33;2.10;;;1.90;;
9115;SDS011;4593;53.652;10.168;2023-04-24T07:06:58;2.10;;;2.00;;
9115;SDS011;4593;53.652;10.168;2023-04-24T07:09:24;2.47;;;2.07;;
9115;SDS011;4593;53.652;10.168;2023-04-24T07:11:53;2.30;;;2.20;;
9115;SDS011;4593;53.652;10.168;2023-04-24T07:14:22;5.13;;;2.13;;
9115;SDS011;4593;53.652;10.168;2023-04-24T07:16:48;2.90;;;2.00;;
9115;SDS011;4593;53.652;10.168;2023-04-24T07:19:15;1.93;;;1.83;;
9115;SDS011;4593;53.652;10.168;2023-04-24T07:21:41;2.20;;;2.07;;
9115;SDS011;4593;53.652;10.168;2023-04-24T07:24:06;3.23;;;2.33;;
9115;SDS011;4593;53.652;10.168;2023-04-24T07:26:35;2.23;;;2.10;;
9115;SDS011;4593;53.652;10.168;2023-04-24T07:29:02;2.70;;;2.00;;
9115;SDS011;4593;53.652;10.168;2023-04-24T07:31:28;2.10;;;1.93;;
9115;SDS011;4593;53.652;10.168;2023-04-24T07:33:54;2.00;;;1.90;;
9115;SDS011;4593;53.652;10.168;2023-04-24T07:36:22;2.50;;;2.30;;
9115;SDS011;4593;53.652;10.168;2023-04-24T07:38:49;3.27;;;2.40;;
9115;SDS011;4593;53.652;10.168;2023-04-24T07:41:15;4.13;;;2.30;;
9115;SDS011;4593;53.652;10.168;2023-04-24T07:43:41;2.33;;;2.13;;
9115;SDS011;4593;53.652;10.168;2023-04-24T07:46:07;2.20;;;2.10;;
9115;SDS011;4593;53.652;10.168;2023-04-24T07:48:33;2.53;;;2.33;;
9115;SDS011;4593;53.652;10.168;2023-04-24T07:51:00;4.47;;;2.20;;
9115;SDS011;4593;53.652;10.168;2023-04-24T07:53:26;3.20;;;2.27;;
9115;SDS011;4593;53.652;10.168;2023-04-24T07:55:51;2.40;;;2.20;;
9115;SDS011;4593;53.652;10.168;2023-04-24T07:58:18;2.90;;;2.40;;
9115;SDS011;4593;53.652;10.168;2023-04-24T08:00:44;2.40;;;2.20;;
9115;SDS011;4593;53.652;10.168;2023-04-24T08:03:10;3.17;;;2.50;;
9115;SDS011;4593;53.652;10.168;2023-04-24T08:05:37;3.00;;;2.70;;
9115;SDS011;4593;53.652;10.168;2023-04-24T08:08:03;5.07;;;2.70;;
9115;SDS011;4593;53.652;10.168;2023-04-24T08:10:29;2.97;;;2.50;;
9115;SDS011;4593;53.652;10.168;2023-04-24T08:12:54;2.97;;;2.63;;
9115;SDS011;4593;53.652;10.168;2023-04-24T08:15:20;3.37;;;2.90;;
9115;SDS011;4593;53.652;10.168;2023-04-24T08:17:46;2.90;;;2.70;;
9115;SDS011;4593;53.652;10.168;2023-04-24T08:20:12;2.90;;;2.70;;
9115;SDS011;4593;53.652;10.168;2023-04-24T08:22:40;3.00;;;2.63;;
9115;SDS011;4593;53.652;10.168;2023-04-24T08:25:07;4.53;;;2.73;;
9115;SDS011;4593;53.652;10.168;2023-04-24T08:27:33;3.10;;;2.80;;
9115;SDS011;4593;53.652;10.168;2023-04-24T08:29:59;3.30;;;2.60;;
9115;SDS011;4593;53.652;10.168;2023-04-24T08:32:25;4.07;;;3.13;;
9115;SDS011;4593;53.652;10.168;2023-04-24T08:34:54;2.80;;;2.60;;
9115;SDS011;4593;53.652;10.168;2023-04-24T08:37:21;4.37;;;3.00;;
9115;SDS011;4593;53.652;10.168;2023-04-24T08:39:48;3.40;;;3.10;;
9115;SDS011;4593;53.652;10.168;2023-04-24T08:42:14;3.30;;;3.07;;
9115;SDS011;4593;53.652;10.168;2023-04-24T08:44:42;4.33;;;3.50;;
9115;SDS011;4593;53.652;10.168;2023-04-24T08:47:08;4.73;;;3.30;;
9115;SDS011;4593;53.652;10.168;2023-04-24T08:49:34;4.03;;;3.07;;
9115;SDS011;4593;53.652;10.168;2023-04-24T08:52:01;3.57;;;3.23;;
9115;SDS011;4593;53.652;10.168;2023-04-24T08:54:28;7.70;;;3.30;;
9115;SDS011;4593;53.652;10.168;2023-04-24T08:56:54;3.93;;;2.80;;
9115;SDS011;4593;53.652;10.168;2023-04-24T08:59:28;3.87;;;3.10;;
9115;SDS011;4593;53.652;10.168;2023-04-24T09:01:55;3.37;;;3.03;;
9115;SDS011;4593;53.652;10.168;2023-04-24T09:04:21;3.13;;;2.67;;
9115;SDS011;4593;53.652;10.168;2023-04-24T09:06:49;3.93;;;2.70;;
9115;SDS011;4593;53.652;10.168;2023-04-24T09:09:22;4.77;;;3.20;;
9115;SDS011;4593;53.652;10.168;2023-04-24T09:11:49;3.63;;;2.80;;
9115;SDS011;4593;53.652;10.168;2023-04-24T09:14:15;4.03;;;3.17;;
9115;SDS011;4593;53.652;10.168;2023-04-24T09:16:42;3.63;;;3.33;;
9115;SDS011;4593;53.652;10.168;2023-04-24T09:19:08;3.43;;;3.13;;
9115;SDS011;4593;53.652;10.168;2023-04-24T09:21:34;3.37;;;3.07;;
9115;SDS011;4593;53.652;10.168;2023-04-24T09:24:01;2.80;;;2.60;;
9115;SDS011;4593;53.652;10.168;2023-04-24T09:26:36;3.13;;;2.83;;
9115;SDS011;4593;53.652;10.168;2023-04-24T09:29:03;3.93;;;3.60;;
9115;SDS011;4593;53.652;10.168;2023-04-24T09:31:29;5.00;;;3.57;;
9115;SDS011;4593;53.652;10.168;2023-04-24T09:36:54;4.03;;;3.20;;
9115;SDS011;4593;53.652;10.168;2023-04-24T09:39:13;4.20;;;3.27;;
9115;SDS011;4593;53.652;10.168;2023-04-24T09:41:47;3.43;;;2.90;;
9115;SDS011;4593;53.652;10.168;2023-04-24T09:44:17;3.93;;;2.97;;
9115;SDS011;4593;53.652;10.168;2023-04-24T09:47:05;5.00;;;3.23;;
9115;SDS011;4593;53.652;10.168;2023-04-24T09:49:35;3.80;;;3.40;;
9115;SDS011;4593;53.652;10.168;2023-04-24T09:54:30;3.70;;;3.30;;
9115;SDS011;4593;53.652;10.168;2023-04-24T09:56:56;3.47;;;3.17;;
9115;SDS011;4593;53.652;10.168;2023-04-24T09:59:22;3.63;;;3.20;;
9115;SDS011;4593;53.652;10.168;2023-04-24T10:01:48;4.00;;;3.30;;
9115;SDS011;4593;53.652;10.168;2023-04-24T10:04:17;4.00;;;3.33;;
9115;SDS011;4593;53.652;10.168;2023-04-24T10:06:43;3.60;;;3.07;;
9115;SDS011;4593;53.652;10.168;2023-04-24T10:09:10;5.80;;;3.97;;
9115;SDS011;4593;53.652;10.168;2023-04-24T10:11:37;3.90;;;3.50;;
9115;SDS011;4593;53.652;10.168;2023-04-24T10:14:09;4.00;;;3.63;;
9115;SDS011;4593;53.652;10.168;2023-04-24T10:16:37;4.07;;;3.67;;
9115;SDS011;4593;53.652;10.168;2023-04-24T10:19:04;4.57;;;3.50;;
9115;SDS011;4593;53.652;10.168;2023-04-24T10:21:30;5.80;;;3.80;;
9115;SDS011;4593;53.652;10.168;2023-04-24T10:23:57;4.20;;;3.80;;
9115;SDS011;4593;53.652;10.168;2023-04-24T10:26:25;4.97;;;3.63;;
9115;SDS011;4593;53.652;10.168;2023-04-24T10:28:52;4.90;;;3.83;;
9115;SDS011;4593;53.652;10.168;2023-04-24T10:31:22;5.27;;;3.60;;
9115;SDS011;4593;53.652;10.168;2023-04-24T10:33:48;5.53;;;4.00;;
9115;SDS011;4593;53.652;10.168;2023-04-24T10:36:16;5.23;;;4.07;;
9115;SDS011;4593;53.652;10.168;2023-04-24T10:38:43;5.53;;;4.10;;
9115;SDS011;4593;53.652;10.168;2023-04-24T10:41:12;5.33;;;3.60;;
9115;SDS011;4593;53.652;10.168;2023-04-24T10:43:44;6.57;;;4.03;;
9115;SDS011;4593;53.652;10.168;2023-04-24T10:46:10;4.43;;;3.80;;
9115;SDS011;4593;53.652;10.168;2023-04-24T10:48:44;6.17;;;4.60;;
9115;SDS011;4593;53.652;10.168;2023-04-24T10:51:18;5.00;;;4.20;;
9115;SDS011;4593;53.652;10.168;2023-04-24T10:54:23;6.57;;;4.23;;
9115;SDS011;4593;53.652;10.168;2023-04-24T10:56:52;5.20;;;4.27;;
9115;SDS011;4593;53.652;10.168;2023-04-24T10:59:25;4.67;;;4.23;;
9115;SDS011;4593;53.652;10.168;2023-04-24T11:01:59;4.90;;;4.43;;
9115;SDS011;4593;53.652;10.168;2023-04-24T11:04:29;6.70;;;4.67;;
9115;SDS011;4593;53.652;10.168;2023-04-24T11:06:56;6.67;;;4.93;;
9115;SDS011;4593;53.652;10.168;2023-04-24T11:09:22;4.50;;;4.07;;
9115;SDS011;4593;53.652;10.168;2023-04-24T11:11:52;8.07;;;4.80;;
9115;SDS011;4593;53.652;10.168;2023-04-24T11:20:03;7.23;;;4.90;;
9115;SDS011;4593;53.652;10.168;2023-04-24T11:22:33;10.77;;;5.30;;
9115;SDS011;4593;53.652;10.168;2023-04-24T11:25:01;9.67;;;6.00;;
9115;SDS011;4593;53.652;10.168;2023-04-24T11:27:29;8.17;;;5.17;;
9115;SDS011;4593;53.652;10.168;2023-04-24T11:30:00;9.10;;;5.60;;
9115;SDS011;4593;53.652;10.168;2023-04-24T11:37:46;6.47;;;5.00;;
9115;SDS011;4593;53.652;10.168;2023-04-24T11:40:16;7.23;;;5.27;;
9115;SDS011;4593;53.652;10.168;2023-04-24T11:42:44;7.43;;;4.47;;
9115;SDS011;4593;53.652;10.168;2023-04-24T11:45:12;6.30;;;4.63;;
9115;SDS011;4593;53.652;10.168;2023-04-24T11:47:39;5.10;;;4.33;;
9115;SDS011;4593;53.652;10.168;2023-04-24T11:50:06;7.77;;;4.67;;
9115;SDS011;4593;53.652;10.168;2023-04-24T11:52:37;6.93;;;5.20;;
9115;SDS011;4593;53.652;10.168;2023-04-24T11:55:06;7.60;;;5.53;;
9115;SDS011;4593;53.652;10.168;2023-04-24T11:57:50;7.30;;;5.03;;
9115;SDS011;4593;53.652;10.168;2023-04-24T12:00:19;6.50;;;5.20;;
9115;SDS011;4593;53.652;10.168;2023-04-24T12:02:46;6.77;;;4.83;;
9115;SDS011;4593;53.652;10.168;2023-04-24T12:05:19;5.00;;;4.50;;
9115;SDS011;4593;53.652;10.168;2023-04-24T12:07:46;9.90;;;5.50;;
9115;SDS011;4593;53.652;10.168;2023-04-24T12:10:11;6.67;;;4.77;;
9115;SDS011;4593;53.652;10.168;2023-04-24T12:12:37;6.03;;;5.10;;
9115;SDS011;4593;53.652;10.168;2023-04-24T12:15:07;7.20;;;4.73;;
9115;SDS011;4593;53.652;10.168;2023-04-24T12:17:34;6.40;;;4.40;;
9115;SDS011;4593;53.652;10.168;2023-04-24T12:20:05;4.30;;;3.90;;
9115;SDS011;4593;53.652;10.168;2023-04-24T12:25:19;7.50;;;4.43;;
9115;SDS011;4593;53.652;10.168;2023-04-24T12:27:46;5.70;;;4.47;;
9115;SDS011;4593;53.652;10.168;2023-04-24T12:30:17;4.13;;;3.73;;
9115;SDS011;4593;53.652;10.168;2023-04-24T12:32:47;4.83;;;4.33;;
9115;SDS011;4593;53.652;10.168;2023-04-24T12:35:21;4.67;;;4.03;;
9115;SDS011;4593;53.652;10.168;2023-04-24T12:37:48;4.60;;;3.90;;
9115;SDS011;4593;53.652;10.168;2023-04-24T12:40:14;5.27;;;4.00;;
9115;SDS011;4593;53.652;10.168;2023-04-24T12:42:50;6.77;;;4.30;;
9115;SDS011;4593;53.652;10.168;2023-04-24T12:45:17;3.97;;;3.20;;
9115;SDS011;4593;53.652;10.168;2023-04-24T12:47:44;4.83;;;3.50;;
9115;SDS011;4593;53.652;10.168;2023-04-24T12:50:12;4.03;;;3.57;;
9115;SDS011;4593;53.652;10.168;2023-04-24T12:52:39;4.10;;;3.53;;
9115;SDS011;4593;53.652;10.168;2023-04-24T12:55:06;4.73;;;3.70;;
9115;SDS011;4593;53.652;10.168;2023-04-24T12:57:36;4.53;;;4.00;;
9115;SDS011;4593;53.652;10.168;2023-04-24T13:00:02;4.50;;;4.10;;
9115;SDS011;4593;53.652;10.168;2023-04-24T13:02:29;4.87;;;4.00;;
9115;SDS011;4593;53.652;10.168;2023-04-24T13:04:56;4.90;;;3.67;;
9115;SDS011;4593;53.652;10.168;2023-04-24T13:07:25;3.83;;;3.43;;
9115;SDS011;4593;53.652;10.168;2023-04-24T13:09:51;5.47;;;4.30;;
9115;SDS011;4593;53.652;10.168;2023-04-24T13:12:17;4.70;;;3.80;;
9115;SDS011;4593;53.652;10.168;2023-04-24T13:14:43;4.03;;;3.60;;
9115;SDS011;4593;53.652;10.168;2023-04-24T13:17:10;4.30;;;3.77;;
9115;SDS011;4593;53.652;10.168;2023-04-24T13:19:37;4.70;;;3.57;;
9115;SDS011;4593;53.652;10.168;2023-04-24T13:22:05;3.80;;;3.40;;
9115;SDS011;4593;53.652;10.168;2023-04-24T13:24:31;4.50;;;3.20;;
9115;SDS011;4593;53.652;10.168;2023-04-24T13:26:58;6.83;;;3.60;;
9115;SDS011;4593;53.652;10.168;2023-04-24T13:29:25;4.57;;;3.50;;
9115;SDS011;4593;53.652;10.168;2023-04-24T13:31:50;3.47;;;3.17;;
9115;SDS011;4593;53.652;10.168;2023-04-24T13:34:19;3.97;;;3.57;;
9115;SDS011;4593;53.652;10.168;2023-04-24T13:36:45;4.47;;;3.90;;
9115;SDS011;4593;53.652;10.168;2023-04-24T13:39:11;4.40;;;3.97;;
9115;SDS011;4593;53.652;10.168;2023-04-24T13:41:37;4.30;;;3.90;;
9115;SDS011;4593;53.652;10.168;2023-04-24T13:44:03;5.27;;;3.90;;
9115;SDS011;4593;53.652;10.168;2023-04-24T13:46:29;7.63;;;4.47;;
9115;SDS011;4593;53.652;10.168;2023-04-24T13:48:55;5.70;;;4.70;;
9115;SDS011;4593;53.652;10.168;2023-04-24T13:51:22;5.20;;;4.37;;
9115;SDS011;4593;53.652;10.168;2023-04-24T13:53:48;5.40;;;3.83;;
9115;SDS011;4593;53.652;10.168;2023-04-24T13:56:14;4.87;;;3.80;;
9115;SDS011;4593;53.652;10.168;2023-04-24T13:58:40;5.30;;;4.23;;
9115;SDS011;4593;53.652;10.168;2023-04-24T14:01:06;5.40;;;4.63;;
9115;SDS011;4593;53.652;10.168;2023-04-24T14:03:33;4.10;;;3.70;;
9115;SDS011;4593;53.652;10.168;2023-04-24T14:05:58;3.80;;;3.50;;
9115;SDS011;4593;53.652;10.168;2023-04-24T14:08:24;4.33;;;3.93;;
9115;SDS011;4593;53.652;10.168;2023-04-24T14:10:50;4.00;;;3.50;;
9115;SDS011;4593;53.652;10.168;2023-04-24T14:13:16;4.27;;;3.87;;
9115;SDS011;4593;53.652;10.168;2023-04-24T14:15:42;4.17;;;3.83;;
9115;SDS011;4593;53.652;10.168;2023-04-24T14:18:08;4.77;;;4.20;;
9115;SDS011;4593;53.652;10.168;2023-04-24T14:20:33;4.63;;;3.70;;
9115;SDS011;4593;53.652;10.168;2023-04-24T14:22:59;3.57;;;3.27;;
9115;SDS011;4593;53.652;10.168;2023-04-24T14:25:25;4.97;;;4.00;;
9115;SDS011;4593;53.652;10.168;2023-04-24T14:27:51;3.77;;;3.47;;
9115;SDS011;4593;53.652;10.168;2023-04-24T14:30:17;3.63;;;3.33;;
9115;SDS011;4593;53.652;10.168;2023-04-24T14:32:43;3.97;;;3.60;;
9115;SDS011;4593;53.652;10.168;2023-04-24T14:35:09;4.07;;;3.63;;
9115;SDS011;4593;53.652;10.168;2023-04-24T14:37:34;4.57;;;3.67;;
9115;SDS011;4593;53.652;10.168;2023-04-24T14:40:01;3.77;;;3.30;;
9115;SDS011;4593;53.652;10.168;2023-04-24T14:42:28;3.60;;;3.17;;
9115;SDS011;4593;53.652;10.168;2023-04-24T14:44:54;4.00;;;3.60;;
9115;SDS011;4593;53.652;10.168;2023-04-24T14:47:20;4.80;;;3.73;;
9115;SDS011;4593;53.652;10.168;2023-04-24T14:49:48;3.83;;;3.27;;
9115;SDS011;4593;53.652;10.168;2023-04-24T14:52:14;5.80;;;4.07;;
9115;SDS011;4593;53.652;10.168;2023-04-24T14:54:40;4.00;;;3.60;;
9115;SDS011;4593;53.652;10.168;2023-04-24T14:57:06;3.90;;;3.40;;
9115;SDS011;4593;53.652;10.168;2023-04-24T14:59:33;4.90;;;3.63;;
9115;SDS011;4593;53.652;10.168;2023-04-24T15:01:59;4.37;;;3.73;;
9115;SDS011;4593;53.652;10.168;2023-04-24T15:04:24;4.90;;;4.37;;
9115;SDS011;4593;53.652;10.168;2023-04-24T15:06:51;5.47;;;4.30;;
9115;SDS011;4593;53.652;10.168;2023-04-24T15:09:18;5.10;;;4.43;;
9115;SDS011;4593;53.652;10.168;2023-04-24T15:11:45;4.87;;;4.37;;
9115;SDS011;4593;53.652;10.168;2023-04-24T15:14:10;5.70;;;4.60;;
9115;SDS011;4593;53.652;10.168;2023-04-24T15:16:36;4.80;;;4.30;;